Time;durP1;ratioP1;P1;durP2;ratioP2;P2;SDS_P1;SDS_P2;PMS_P1;PMS_P2;Temp;Humidity;BMP_temperature;BMP_pressure;BME280_temperature;BME280_humidity;BME280_pressure;Samples;Min_cycle;Max_cycle;Signal;HPM_P1;HPM_P2
2021/09/19 00:01:05;;;;;;;3.78;2.08;;;;;;;;;;765351;180;915316;-65
2021/09/19 00:03:31;;;;;;;3.10;1.93;;;;;;;;;;772491;180;916171;-65
2021/09/19 00:05:57;;;;;;;2.63;1.67;;;;;;;;;;771580;180;915947;-65
2021/09/19 00:08:23;;;;;;;2.77;1.57;;;;;;;;;;774450;179;914805;-65
2021/09/19 00:10:50;;;;;;;3.27;1.73;;;;;;;;;;781678;178;916875;-65
2021/09/19 00:13:14;;;;;;;2.30;1.50;;;;;;;;;;759536;179;914585;-67
2021/09/19 00:15:40;;;;;;;3.27;1.63;;;;;;;;;;780119;180;916220;-66
2021/09/19 00:18:06;;;;;;;8.00;2.13;;;;;;;;;;780495;174;914156;-65
2021/09/19 00:20:32;;;;;;;2.20;1.50;;;;;;;;;;766829;179;915652;-66
2021/09/19 00:22:58;;;;;;;2.57;1.80;;;;;;;;;;777184;179;913432;-66
2021/09/19 00:25:24;;;;;;;4.35;2.25;;;;;;;;;;770538;179;919451;-66
2021/09/19 00:27:50;;;;;;;3.03;1.60;;;;;;;;;;768365;180;919824;-65
2021/09/19 00:30:15;;;;;;;2.30;1.50;;;;;;;;;;775641;180;912511;-66
2021/09/19 00:32:41;;;;;;;5.30;2.30;;;;;;;;;;764773;180;913515;-65
2021/09/19 00:35:08;;;;;;;2.97;2.17;;;;;;;;;;765845;180;919026;-66
2021/09/19 00:37:33;;;;;;;5.03;1.90;;;;;;;;;;765665;180;919168;-66
2021/09/19 00:39:59;;;;;;;5.13;2.27;;;;;;;;;;782309;177;919531;-66
2021/09/19 00:42:25;;;;;;;2.73;1.60;;;;;;;;;;764555;182;919187;-67
2021/09/19 00:44:57;;;;;;;4.57;2.37;;;;;;;;;;782092;178;923887;-66
2021/09/19 00:47:23;;;;;;;4.50;2.33;;;;;;;;;;784314;177;918270;-67
2021/09/19 00:49:48;;;;;;;7.30;1.90;;;;;;;;;;775518;178;918994;-68
2021/09/19 00:52:14;;;;;;;2.70;1.83;;;;;;;;;;779952;178;922960;-67
2021/09/19 00:54:40;;;;;;;3.17;1.93;;;;;;;;;;776557;178;1050532;-67
2021/09/19 00:57:06;;;;;;;2.90;1.80;;;;;;;;;;781525;178;918207;-67
2021/09/19 00:59:32;;;;;;;2.70;1.50;;;;;;;;;;772821;176;919251;-66
2021/09/19 01:01:58;;;;;;;2.33;1.50;;;;;;;;;;769625;180;919335;-67
2021/09/19 01:04:24;;;;;;;2.17;1.37;;;;;;;;;;768154;180;919593;-67
2021/09/19 01:06:49;;;;;;;1.90;1.13;;;;;;;;;;769359;180;919402;-67
2021/09/19 01:09:15;;;;;;;2.10;1.37;;;;;;;;;;770531;174;919103;-67
2021/09/19 01:11:41;;;;;;;2.13;1.27;;;;;;;;;;773133;177;918862;-67
2021/09/19 01:14:07;;;;;;;2.37;1.20;;;;;;;;;;771421;180;922974;-68
2021/09/19 01:16:33;;;;;;;3.10;1.30;;;;;;;;;;779027;176;918532;-67
2021/09/19 01:18:59;;;;;;;2.00;1.10;;;;;;;;;;772249;177;918908;-66
2021/09/19 01:21:25;;;;;;;2.80;1.27;;;;;;;;;;767896;179;918737;-67
2021/09/19 01:23:54;;;;;;;2.30;1.50;;;;;;;;;;767716;181;919450;-68
2021/09/19 01:26:19;;;;;;;2.27;1.17;;;;;;;;;;774279;177;919239;-67
2021/09/19 01:28:45;;;;;;;2.57;1.37;;;;;;;;;;769138;179;918565;-67
2021/09/19 01:31:11;;;;;;;3.00;1.23;;;;;;;;;;769456;180;1021368;-68
2021/09/19 01:33:37;;;;;;;3.47;1.80;;;;;;;;;;768738;179;918447;-67
2021/09/19 01:36:03;;;;;;;2.43;1.50;;;;;;;;;;769583;180;919456;-68
2021/09/19 01:38:28;;;;;;;2.87;1.83;;;;;;;;;;763203;179;919134;-69
2021/09/19 01:40:54;;;;;;;2.40;1.80;;;;;;;;;;781027;177;919450;-68
2021/09/19 01:43:20;;;;;;;2.90;1.73;;;;;;;;;;774388;175;918241;-66
2021/09/19 01:45:46;;;;;;;4.00;2.10;;;;;;;;;;778922;179;918978;-67
2021/09/19 01:48:12;;;;;;;4.90;1.77;;;;;;;;;;774669;179;919591;-68
2021/09/19 01:50:38;;;;;;;4.20;2.80;;;;;;;;;;763519;180;918091;-67
2021/09/19 01:53:03;;;;;;;3.70;2.50;;;;;;;;;;771259;179;925301;-67
2021/09/19 01:55:29;;;;;;;4.67;3.37;;;;;;;;;;777047;178;919067;-68
2021/09/19 01:57:55;;;;;;;4.83;3.40;;;;;;;;;;774539;176;918345;-68
2021/09/19 02:00:21;;;;;;;5.53;3.43;;;;;;;;;;787829;178;919249;-68
2021/09/19 02:02:47;;;;;;;6.10;3.93;;;;;;;;;;765637;181;919326;-68
2021/09/19 02:05:13;;;;;;;8.70;4.80;;;;;;;;;;780420;178;919268;-67
2021/09/19 02:07:39;;;;;;;6.28;3.75;;;;;;;;;;771655;174;918288;-68
2021/09/19 02:10:05;;;;;;;6.07;4.70;;;;;;;;;;781772;175;918658;-68
2021/09/19 02:12:31;;;;;;;6.97;4.13;;;;;;;;;;769303;179;919237;-67
2021/09/19 02:14:57;;;;;;;5.53;4.10;;;;;;;;;;762749;180;918530;-67
2021/09/19 02:17:22;;;;;;;6.23;4.73;;;;;;;;;;774313;180;918722;-68
2021/09/19 02:19:48;;;;;;;5.00;4.00;;;;;;;;;;758728;182;920095;-68
2021/09/19 02:22:14;;;;;;;5.25;3.75;;;;;;;;;;764116;182;918279;-66
2021/09/19 02:24:40;;;;;;;10.43;4.87;;;;;;;;;;769339;181;918362;-66
2021/09/19 02:27:06;;;;;;;6.67;4.80;;;;;;;;;;780669;175;918788;-67
2021/09/19 02:29:32;;;;;;;5.00;4.00;;;;;;;;;;774098;175;919480;-67
2021/09/19 02:31:57;;;;;;;6.13;4.50;;;;;;;;;;770040;180;918055;-67
2021/09/19 02:34:23;;;;;;;4.90;3.60;;;;;;;;;;771710;179;920273;-66
2021/09/19 02:36:49;;;;;;;4.83;3.60;;;;;;;;;;784670;176;916185;-67
2021/09/19 02:39:15;;;;;;;5.50;3.77;;;;;;;;;;764083;180;919858;-67
2021/09/19 02:41:41;;;;;;;6.10;4.13;;;;;;;;;;778851;180;915758;-67
2021/09/19 02:44:07;;;;;;;8.93;3.53;;;;;;;;;;768978;180;918955;-67
2021/09/19 02:46:32;;;;;;;5.83;4.27;;;;;;;;;;765288;176;918920;-67
2021/09/19 02:48:58;;;;;;;6.30;3.93;;;;;;;;;;790543;175;919520;-67
2021/09/19 02:51:24;;;;;;;5.73;3.60;;;;;;;;;;767712;182;918415;-67
2021/09/19 02:53:50;;;;;;;4.40;3.17;;;;;;;;;;784278;175;928994;-67
2021/09/19 02:56:16;;;;;;;5.60;3.97;;;;;;;;;;774393;178;918978;-67
2021/09/19 02:58:42;;;;;;;5.03;3.40;;;;;;;;;;773656;179;918518;-66
2021/09/19 03:01:07;;;;;;;6.30;4.00;;;;;;;;;;776532;178;918775;-67
2021/09/19 03:03:33;;;;;;;4.97;3.93;;;;;;;;;;777392;177;919441;-66
2021/09/19 03:05:59;;;;;;;5.10;3.63;;;;;;;;;;772357;179;918976;-66
2021/09/19 03:08:25;;;;;;;4.93;3.40;;;;;;;;;;779984;178;918688;-67
2021/09/19 03:10:51;;;;;;;6.00;4.10;;;;;;;;;;789747;176;918839;-67
2021/09/19 03:13:17;;;;;;;6.30;4.50;;;;;;;;;;773092;176;918914;-67
2021/09/19 03:15:42;;;;;;;6.00;4.60;;;;;;;;;;760814;180;956101;-67
2021/09/19 03:18:08;;;;;;;7.90;5.87;;;;;;;;;;772604;180;1020857;-67
2021/09/19 03:20:34;;;;;;;9.85;5.87;;;;;;;;;;779579;180;918504;-67
2021/09/19 03:23:00;;;;;;;10.10;6.60;;;;;;;;;;766151;180;919300;-67
2021/09/19 03:25:26;;;;;;;14.63;7.80;;;;;;;;;;765089;180;919454;-68
2021/09/19 03:27:52;;;;;;;11.80;7.30;;;;;;;;;;766649;179;918321;-67
2021/09/19 03:30:17;;;;;;;14.77;8.33;;;;;;;;;;768881;180;919448;-66
2021/09/19 03:32:43;;;;;;;11.47;8.00;;;;;;;;;;772258;180;919626;-67
2021/09/19 03:35:10;;;;;;;16.67;9.73;;;;;;;;;;774666;180;918359;-66
2021/09/19 03:37:36;;;;;;;14.00;10.30;;;;;;;;;;778839;180;916150;-66
2021/09/19 03:40:01;;;;;;;11.90;9.60;;;;;;;;;;746337;183;918102;-68
2021/09/19 03:42:27;;;;;;;13.17;9.20;;;;;;;;;;772712;179;912028;-68
2021/09/19 03:44:53;;;;;;;13.47;9.70;;;;;;;;;;767292;181;916498;-68
2021/09/19 03:47:19;;;;;;;14.07;10.43;;;;;;;;;;766929;180;915054;-67
2021/09/19 03:49:45;;;;;;;15.07;9.73;;;;;;;;;;771645;180;914979;-67
2021/09/19 03:52:11;;;;;;;17.57;11.37;;;;;;;;;;785051;176;917909;-68
2021/09/19 03:54:36;;;;;;;20.67;13.00;;;;;;;;;;750049;180;1089764;-68
2021/09/19 03:57:02;;;;;;;22.20;13.33;;;;;;;;;;781488;178;922301;-67
2021/09/19 03:59:28;;;;;;;17.30;12.17;;;;;;;;;;760426;179;919095;-65
2021/09/19 04:01:54;;;;;;;21.87;13.87;;;;;;;;;;780744;180;916662;-68
2021/09/19 04:04:20;;;;;;;26.80;16.30;;;;;;;;;;765052;180;918671;-67
2021/09/19 04:06:46;;;;;;;25.17;14.98;;;;;;;;;;768783;180;918093;-68
2021/09/19 04:09:12;;;;;;;24.83;16.57;;;;;;;;;;767970;179;916533;-67
2021/09/19 04:11:37;;;;;;;27.33;17.00;;;;;;;;;;763951;179;945263;-68
2021/09/19 04:14:03;;;;;;;26.43;16.33;;;;;;;;;;773397;176;919553;-66
2021/09/19 04:16:29;;;;;;;26.20;16.70;;;;;;;;;;782610;176;919141;-67
2021/09/19 04:18:55;;;;;;;26.77;17.30;;;;;;;;;;776268;177;918874;-67
2021/09/19 04:21:21;;;;;;;27.17;16.43;;;;;;;;;;786842;176;620489;-67
2021/09/19 04:23:47;;;;;;;30.37;16.87;;;;;;;;;;770213;180;630204;-67
2021/09/19 04:26:12;;;;;;;21.20;13.53;;;;;;;;;;784683;180;623035;-69
2021/09/19 04:28:38;;;;;;;22.60;15.63;;;;;;;;;;772805;180;669275;-66
2021/09/19 04:31:04;;;;;;;28.23;16.80;;;;;;;;;;783955;177;634972;-67
2021/09/19 04:33:30;;;;;;;20.47;14.50;;;;;;;;;;776606;180;659991;-68
2021/09/19 04:35:56;;;;;;;24.60;15.30;;;;;;;;;;773777;180;919481;-66
2021/09/19 04:38:22;;;;;;;24.87;15.47;;;;;;;;;;764459;182;918770;-66
2021/09/19 04:40:47;;;;;;;23.43;16.60;;;;;;;;;;780110;180;918480;-67
2021/09/19 04:43:13;;;;;;;20.50;14.97;;;;;;;;;;763768;180;919785;-68
2021/09/19 04:45:39;;;;;;;29.97;15.97;;;;;;;;;;769689;176;919102;-66
2021/09/19 04:48:05;;;;;;;22.17;14.90;;;;;;;;;;787685;174;919161;-66
2021/09/19 04:50:31;;;;;;;24.53;15.57;;;;;;;;;;776861;179;917774;-68
2021/09/19 04:52:57;;;;;;;28.83;17.50;;;;;;;;;;771388;180;919182;-67
2021/09/19 04:55:23;;;;;;;24.27;15.60;;;;;;;;;;763881;181;919009;-66
2021/09/19 04:57:48;;;;;;;28.80;16.87;;;;;;;;;;778511;180;919171;-67
2021/09/19 05:00:14;;;;;;;29.33;17.40;;;;;;;;;;762273;179;918226;-67
2021/09/19 05:02:40;;;;;;;32.27;17.80;;;;;;;;;;768980;179;919276;-67
2021/09/19 05:05:07;;;;;;;29.13;17.00;;;;;;;;;;773824;179;918454;-67
2021/09/19 05:07:32;;;;;;;26.33;15.83;;;;;;;;;;765230;180;930666;-67
2021/09/19 05:09:58;;;;;;;24.67;17.00;;;;;;;;;;775388;178;921094;-68
2021/09/19 05:12:24;;;;;;;24.97;16.53;;;;;;;;;;777939;178;917954;-67
2021/09/19 05:14:53;;;;;;;28.97;16.10;;;;;;;;;;768818;180;918975;-67
2021/09/19 05:17:16;;;;;;;30.93;16.73;;;;;;;;;;772329;180;918521;-67
2021/09/19 05:19:42;;;;;;;29.27;16.77;;;;;;;;;;773603;179;919334;-67
2021/09/19 05:22:07;;;;;;;29.05;16.90;;;;;;;;;;773975;179;920260;-67
2021/09/19 05:24:33;;;;;;;29.20;17.33;;;;;;;;;;779859;175;919743;-68
2021/09/19 05:26:59;;;;;;;30.03;18.47;;;;;;;;;;779686;178;917778;-68
2021/09/19 05:29:25;;;;;;;35.97;19.47;;;;;;;;;;785588;178;918897;-66
2021/09/19 05:31:51;;;;;;;26.30;17.10;;;;;;;;;;787233;175;918296;-66
2021/09/19 05:34:17;;;;;;;32.63;17.43;;;;;;;;;;792578;175;917775;-66
2021/09/19 05:36:43;;;;;;;30.20;17.57;;;;;;;;;;794227;174;918832;-66
2021/09/19 05:39:08;;;;;;;30.37;18.90;;;;;;;;;;790784;174;918857;-68
2021/09/19 05:41:34;;;;;;;29.60;17.42;;;;;;;;;;786683;175;1640285;-67
2021/09/19 05:44:01;;;;;;;28.40;16.87;;;;;;;;;;791235;175;995894;-67
2021/09/19 05:46:26;;;;;;;29.60;18.33;;;;;;;;;;784040;177;918029;-67
2021/09/19 05:48:52;;;;;;;26.60;17.63;;;;;;;;;;793352;174;918332;-67
2021/09/19 05:51:21;;;;;;;29.03;18.40;;;;;;;;;;788889;175;919079;-67
2021/09/19 05:53:44;;;;;;;36.37;16.87;;;;;;;;;;795626;174;914918;-66
2021/09/19 05:56:10;;;;;;;30.70;19.57;;;;;;;;;;790220;175;918657;-67
2021/09/19 05:58:35;;;;;;;27.33;18.83;;;;;;;;;;788996;175;919200;-66
2021/09/19 06:01:01;;;;;;;28.17;16.07;;;;;;;;;;793273;175;927241;-67
2021/09/19 06:03:27;;;;;;;31.47;17.20;;;;;;;;;;791092;174;918317;-67
2021/09/19 06:05:53;;;;;;;30.93;16.83;;;;;;;;;;774478;178;919430;-67
2021/09/19 06:08:19;;;;;;;29.27;15.97;;;;;;;;;;771665;178;919506;-67
2021/09/19 06:10:45;;;;;;;27.47;17.30;;;;;;;;;;781309;177;918898;-67
2021/09/19 06:13:10;;;;;;;33.73;17.70;;;;;;;;;;780120;178;918846;-67
2021/09/19 06:15:36;;;;;;;27.47;16.70;;;;;;;;;;772433;179;919103;-66
2021/09/19 06:18:02;;;;;;;22.50;15.77;;;;;;;;;;772447;180;920048;-66
2021/09/19 06:20:28;;;;;;;26.33;14.33;;;;;;;;;;767711;180;918916;-68
2021/09/19 06:22:54;;;;;;;20.40;14.07;;;;;;;;;;763946;178;918611;-68
2021/09/19 06:25:20;;;;;;;23.27;13.50;;;;;;;;;;776453;179;918522;-67
2021/09/19 06:27:45;;;;;;;24.73;12.43;;;;;;;;;;768637;179;919034;-69
2021/09/19 06:30:12;;;;;;;17.30;11.73;;;;;;;;;;767406;179;918027;-68
2021/09/19 06:32:38;;;;;;;14.63;10.60;;;;;;;;;;772721;179;919080;-68
2021/09/19 06:35:04;;;;;;;17.50;11.93;;;;;;;;;;779828;176;918369;-67
2021/09/19 06:37:30;;;;;;;13.63;10.30;;;;;;;;;;770396;177;919304;-68
2021/09/19 06:39:55;;;;;;;17.60;10.20;;;;;;;;;;779077;177;918710;-66
2021/09/19 06:42:21;;;;;;;15.20;10.93;;;;;;;;;;769756;179;918283;-67
2021/09/19 06:44:48;;;;;;;17.00;10.53;;;;;;;;;;772403;177;918875;-68
2021/09/19 06:47:13;;;;;;;14.57;9.50;;;;;;;;;;758577;180;918666;-67
2021/09/19 06:49:39;;;;;;;12.50;9.20;;;;;;;;;;791372;175;890707;-66
2021/09/19 06:52:05;;;;;;;12.83;8.10;;;;;;;;;;774698;179;917748;-68
2021/09/19 06:54:30;;;;;;;11.20;8.00;;;;;;;;;;794369;174;916085;-68
2021/09/19 06:56:56;;;;;;;10.20;7.63;;;;;;;;;;783166;178;633345;-69
2021/09/19 06:59:22;;;;;;;16.90;7.80;;;;;;;;;;783272;177;919783;-68
2021/09/19 07:01:49;;;;;;;12.07;8.73;;;;;;;;;;780516;177;627986;-67
2021/09/19 07:04:15;;;;;;;10.30;6.90;;;;;;;;;;774912;179;916505;-67
2021/09/19 07:06:41;;;;;;;12.60;7.70;;;;;;;;;;768510;179;919031;-66
2021/09/19 07:09:07;;;;;;;10.80;7.17;;;;;;;;;;764623;179;919931;-67
2021/09/19 07:11:32;;;;;;;12.10;7.70;;;;;;;;;;775283;180;627943;-67
2021/09/19 07:13:58;;;;;;;9.80;7.33;;;;;;;;;;780929;177;626405;-68
2021/09/19 07:16:24;;;;;;;11.00;6.90;;;;;;;;;;763232;183;916830;-67
2021/09/19 07:18:50;;;;;;;10.18;6.57;;;;;;;;;;782246;178;918447;-67
2021/09/19 07:21:16;;;;;;;8.37;6.97;;;;;;;;;;780837;178;914682;-67
2021/09/19 07:23:42;;;;;;;10.60;7.43;;;;;;;;;;770545;179;916770;-67
2021/09/19 07:26:07;;;;;;;22.43;14.77;;;;;;;;;;770915;177;1041280;-68
2021/09/19 07:28:33;;;;;;;12.50;9.10;;;;;;;;;;768760;180;912931;-67
2021/09/19 07:30:59;;;;;;;11.03;7.60;;;;;;;;;;773016;179;919020;-67
2021/09/19 07:33:26;;;;;;;10.20;6.87;;;;;;;;;;780436;178;918290;-67
2021/09/19 07:35:52;;;;;;;9.97;7.20;;;;;;;;;;764890;180;919480;-68
2021/09/19 07:38:20;;;;;;;9.20;6.00;;;;;;;;;;771662;180;918154;-67
2021/09/19 07:40:47;;;;;;;9.73;6.73;;;;;;;;;;784226;176;918667;-68
2021/09/19 07:43:14;;;;;;;12.23;6.50;;;;;;;;;;769911;179;919479;-67
2021/09/19 07:45:40;;;;;;;9.20;6.50;;;;;;;;;;775182;179;919239;-67
2021/09/19 07:48:06;;;;;;;12.33;6.67;;;;;;;;;;769529;179;919222;-67
2021/09/19 07:50:32;;;;;;;9.10;6.60;;;;;;;;;;767523;179;918232;-68
2021/09/19 07:52:58;;;;;;;10.23;5.03;;;;;;;;;;769511;179;918676;-67
2021/09/19 07:55:26;;;;;;;8.87;5.90;;;;;;;;;;776935;179;614553;-67
2021/09/19 07:57:49;;;;;;;10.30;6.27;;;;;;;;;;779018;178;919542;-69
2021/09/19 08:00:15;;;;;;;10.98;6.07;;;;;;;;;;769893;179;918321;-67
2021/09/19 08:02:41;;;;;;;10.70;6.17;;;;;;;;;;775149;179;816356;-67
2021/09/19 08:05:07;;;;;;;9.30;6.47;;;;;;;;;;767840;179;1076990;-67
2021/09/19 08:07:33;;;;;;;8.90;5.83;;;;;;;;;;769470;179;919102;-66
2021/09/19 08:09:59;;;;;;;6.68;5.12;;;;;;;;;;775087;179;919338;-66
2021/09/19 08:12:25;;;;;;;11.00;6.20;;;;;;;;;;767111;179;947231;-66
2021/09/19 08:14:51;;;;;;;9.30;5.37;;;;;;;;;;767320;179;927408;-66
2021/09/19 08:17:17;;;;;;;10.03;5.30;;;;;;;;;;768187;179;920678;-67
2021/09/19 08:19:42;;;;;;;5.17;3.70;;;;;;;;;;766198;179;918316;-69
2021/09/19 08:22:08;;;;;;;13.10;5.37;;;;;;;;;;766229;180;919574;-68
2021/09/19 08:24:34;;;;;;;9.00;6.60;;;;;;;;;;767676;179;920521;-68
2021/09/19 08:27:00;;;;;;;5.70;3.73;;;;;;;;;;774113;179;918844;-68
2021/09/19 08:29:26;;;;;;;4.50;3.43;;;;;;;;;;770231;179;918233;-67
2021/09/19 08:31:53;;;;;;;7.87;3.80;;;;;;;;;;773032;177;931724;-67
2021/09/19 08:34:17;;;;;;;4.30;3.43;;;;;;;;;;774319;178;918950;-67
2021/09/19 08:36:43;;;;;;;7.80;4.03;;;;;;;;;;767114;179;1019011;-67
2021/09/19 08:39:10;;;;;;;5.97;4.00;;;;;;;;;;768475;179;916350;-67
2021/09/19 08:41:36;;;;;;;9.30;5.78;;;;;;;;;;769692;179;919414;-67
2021/09/19 08:44:03;;;;;;;5.80;4.60;;;;;;;;;;768874;179;920155;-70
2021/09/19 08:46:30;;;;;;;5.73;4.50;;;;;;;;;;781169;177;918380;-67
2021/09/19 08:48:57;;;;;;;7.70;5.83;;;;;;;;;;770358;179;916652;-68
2021/09/19 08:51:23;;;;;;;9.20;5.77;;;;;;;;;;777315;179;815565;-67
2021/09/19 08:53:49;;;;;;;6.60;4.73;;;;;;;;;;773531;179;733294;-68
2021/09/19 08:56:22;;;;;;;6.77;4.53;;;;;;;;;;767510;179;918627;-66
2021/09/19 08:58:48;;;;;;;8.10;5.57;;;;;;;;;;768098;179;935135;-67
2021/09/19 09:01:14;;;;;;;7.10;5.20;;;;;;;;;;775706;179;918677;-68
2021/09/19 09:03:40;;;;;;;43.40;21.23;;;;;;;;;;768234;179;918997;-66
2021/09/19 09:06:07;;;;;;;12.47;8.27;;;;;;;;;;769713;180;918922;-69
2021/09/19 09:08:31;;;;;;;9.63;7.93;;;;;;;;;;770356;180;918646;-67
2021/09/19 09:10:58;;;;;;;9.30;6.93;;;;;;;;;;759655;182;1193769;-69
2021/09/19 09:13:23;;;;;;;8.50;6.83;;;;;;;;;;768686;179;919066;-69
2021/09/19 09:15:51;;;;;;;7.13;5.23;;;;;;;;;;775524;179;918254;-68
2021/09/19 09:18:22;;;;;;;7.80;5.63;;;;;;;;;;779418;175;926627;-68
2021/09/19 09:20:49;;;;;;;11.50;8.13;;;;;;;;;;779653;178;918281;-71
2021/09/19 09:23:22;;;;;;;9.33;7.80;;;;;;;;;;768831;178;1019860;-69
2021/09/19 09:25:47;;;;;;;9.10;6.90;;;;;;;;;;778061;175;907774;-67
2021/09/19 09:28:13;;;;;;;8.67;6.43;;;;;;;;;;770777;179;919790;-68
2021/09/19 09:30:39;;;;;;;9.20;6.80;;;;;;;;;;765974;179;918792;-68
2021/09/19 09:33:05;;;;;;;7.70;5.30;;;;;;;;;;765121;180;918184;-68
2021/09/19 09:35:34;;;;;;;6.27;5.67;;;;;;;;;;784381;176;815932;-69
2021/09/19 09:38:00;;;;;;;6.50;4.33;;;;;;;;;;764120;181;918889;-69
2021/09/19 09:40:28;;;;;;;8.13;6.00;;;;;;;;;;781135;178;920379;-67
2021/09/19 09:42:59;;;;;;;7.37;5.97;;;;;;;;;;778366;178;918362;-69
2021/09/19 09:45:25;;;;;;;9.70;5.30;;;;;;;;;;780134;178;626403;-70
2021/09/19 09:47:51;;;;;;;7.27;5.10;;;;;;;;;;782092;178;917556;-71
2021/09/19 09:50:18;;;;;;;6.35;4.90;;;;;;;;;;777838;175;1021492;-69
2021/09/19 09:52:44;;;;;;;7.63;5.33;;;;;;;;;;782565;178;918416;-70
2021/09/19 09:55:11;;;;;;;6.57;4.97;;;;;;;;;;776023;179;626692;-69
2021/09/19 09:57:40;;;;;;;9.02;5.22;;;;;;;;;;789112;174;919524;-69
2021/09/19 10:00:07;;;;;;;7.97;5.77;;;;;;;;;;783738;178;911754;-69
2021/09/19 10:02:33;;;;;;;8.70;5.00;;;;;;;;;;765358;182;918669;-71
2021/09/19 10:04:59;;;;;;;8.17;6.87;;;;;;;;;;761785;182;918786;-71
2021/09/19 10:07:25;;;;;;;8.40;5.70;;;;;;;;;;762372;181;918775;-69
2021/09/19 10:09:51;;;;;;;8.57;5.90;;;;;;;;;;767180;182;919410;-70
2021/09/19 10:12:20;;;;;;;7.53;5.40;;;;;;;;;;775673;179;915074;-69
2021/09/19 10:14:42;;;;;;;8.33;5.50;;;;;;;;;;778374;177;919501;-70
2021/09/19 10:17:08;;;;;;;9.20;7.40;;;;;;;;;;783340;178;918516;-71
2021/09/19 10:19:34;;;;;;;8.23;6.90;;;;;;;;;;763746;182;918008;-69
2021/09/19 10:22:00;;;;;;;7.35;6.00;;;;;;;;;;779519;178;919376;-69
2021/09/19 10:24:26;;;;;;;8.53;5.67;;;;;;;;;;776706;178;922350;-69
2021/09/19 10:26:52;;;;;;;8.03;5.90;;;;;;;;;;770418;179;915123;-70
2021/09/19 10:29:18;;;;;;;6.30;5.40;;;;;;;;;;778852;177;918836;-70
2021/09/19 10:31:44;;;;;;;9.73;6.43;;;;;;;;;;768466;178;918634;-68
2021/09/19 10:34:10;;;;;;;8.77;6.57;;;;;;;;;;773595;179;919897;-69
2021/09/19 10:36:52;;;;;;;9.77;6.13;;;;;;;;;;768354;179;933257;-70
2021/09/19 10:39:31;;;;;;;11.73;7.30;;;;;;;;;;768623;179;918694;-70
2021/09/19 10:42:03;;;;;;;9.17;6.90;;;;;;;;;;767923;179;926239;-70
2021/09/19 10:44:35;;;;;;;10.40;6.93;;;;;;;;;;782658;176;627397;-70
2021/09/19 10:47:03;;;;;;;10.17;7.10;;;;;;;;;;773291;177;625540;-70
2021/09/19 10:49:29;;;;;;;9.53;7.30;;;;;;;;;;776035;177;917566;-69
2021/09/19 10:52:08;;;;;;;9.30;7.50;;;;;;;;;;770392;179;919317;-70
2021/09/19 10:54:40;;;;;;;12.50;8.40;;;;;;;;;;771581;179;918615;-69
2021/09/19 10:57:21;;;;;;;8.00;6.20;;;;;;;;;;770885;179;917879;-70
2021/09/19 10:59:52;;;;;;;13.17;8.43;;;;;;;;;;774794;179;703423;-69
2021/09/19 11:02:24;;;;;;;15.60;7.43;;;;;;;;;;770515;179;918689;-68
2021/09/19 11:04:51;;;;;;;10.63;6.70;;;;;;;;;;776927;179;622488;-69
2021/09/19 11:07:19;;;;;;;11.60;7.43;;;;;;;;;;771461;180;632833;-71
2021/09/19 11:09:44;;;;;;;9.70;8.43;;;;;;;;;;786093;178;628480;-70
2021/09/19 11:12:12;;;;;;;13.13;9.40;;;;;;;;;;788828;177;627911;-71
2021/09/19 11:14:43;;;;;;;9.37;7.90;;;;;;;;;;778655;178;618830;-69
2021/09/19 11:17:16;;;;;;;9.33;7.43;;;;;;;;;;772343;179;619200;-71
2021/09/19 11:19:42;;;;;;;11.70;8.10;;;;;;;;;;769615;180;908586;-70
2021/09/19 11:22:08;;;;;;;12.03;9.03;;;;;;;;;;773017;174;634347;-70
2021/09/19 11:24:34;;;;;;;10.10;8.10;;;;;;;;;;784464;176;632600;-69
2021/09/19 11:26:59;;;;;;;12.63;8.90;;;;;;;;;;769139;179;913328;-69
2021/09/19 11:29:25;;;;;;;34.10;17.73;;;;;;;;;;779608;175;621506;-69
2021/09/19 11:31:51;;;;;;;14.70;11.23;;;;;;;;;;776390;174;917278;-71
2021/09/19 11:34:17;;;;;;;14.83;9.47;;;;;;;;;;756641;177;918750;-69
2021/09/19 11:36:43;;;;;;;15.20;10.70;;;;;;;;;;774070;177;918998;-69
2021/09/19 11:39:09;;;;;;;17.93;9.37;;;;;;;;;;775667;179;907012;-70
2021/09/19 11:41:34;;;;;;;14.63;10.53;;;;;;;;;;774348;177;919385;-70
2021/09/19 11:44:00;;;;;;;16.03;9.70;;;;;;;;;;767655;179;919949;-70
2021/09/19 11:46:26;;;;;;;15.00;9.43;;;;;;;;;;765699;179;919842;-70
2021/09/19 11:48:52;;;;;;;12.53;9.73;;;;;;;;;;765344;179;919070;-70
2021/09/19 11:51:18;;;;;;;10.67;9.57;;;;;;;;;;778826;175;919831;-72
2021/09/19 11:53:44;;;;;;;16.40;10.43;;;;;;;;;;778932;178;917515;-71
2021/09/19 11:56:10;;;;;;;12.67;9.37;;;;;;;;;;785017;178;816009;-70
2021/09/19 11:58:35;;;;;;;12.97;9.50;;;;;;;;;;774218;176;955019;-69
2021/09/19 12:01:01;;;;;;;11.55;9.40;;;;;;;;;;778442;178;918863;-69
2021/09/19 12:03:27;;;;;;;14.27;9.43;;;;;;;;;;783686;178;914489;-69
2021/09/19 12:05:53;;;;;;;11.60;8.33;;;;;;;;;;755765;182;916440;-69
2021/09/19 12:08:19;;;;;;;10.87;7.67;;;;;;;;;;773030;179;901595;-70
2021/09/19 12:10:44;;;;;;;9.47;7.83;;;;;;;;;;783549;178;913593;-71
2021/09/19 12:13:22;;;;;;;11.40;8.00;;;;;;;;;;773403;178;916201;-70
2021/09/19 12:15:53;;;;;;;8.07;6.70;;;;;;;;;;790782;175;919316;-69
2021/09/19 12:18:19;;;;;;;9.83;8.40;;;;;;;;;;777886;178;918430;-72
2021/09/19 12:20:45;;;;;;;10.83;8.37;;;;;;;;;;764558;179;918893;-71
2021/09/19 12:23:13;;;;;;;13.27;9.00;;;;;;;;;;785375;177;918920;-69
2021/09/19 12:25:45;;;;;;;11.07;8.63;;;;;;;;;;771723;175;943131;-70
2021/09/19 12:28:10;;;;;;;10.70;9.60;;;;;;;;;;766681;180;918752;-72
2021/09/19 12:30:36;;;;;;;12.27;8.97;;;;;;;;;;779152;178;918684;-69
2021/09/19 12:33:02;;;;;;;12.10;9.00;;;;;;;;;;778958;179;921185;-69
2021/09/19 12:35:28;;;;;;;10.63;7.97;;;;;;;;;;766713;179;918996;-69
2021/09/19 12:37:55;;;;;;;11.43;8.73;;;;;;;;;;782798;176;919006;-70
2021/09/19 12:40:21;;;;;;;9.13;7.22;;;;;;;;;;782062;178;918028;-71
2021/09/19 12:42:47;;;;;;;13.07;7.70;;;;;;;;;;774715;178;918722;-69
2021/09/19 12:45:12;;;;;;;9.83;7.80;;;;;;;;;;787383;174;919121;-70
2021/09/19 12:47:38;;;;;;;12.40;8.13;;;;;;;;;;768508;178;918514;-72
2021/09/19 12:50:05;;;;;;;12.37;7.90;;;;;;;;;;776808;178;919178;-70
2021/09/19 12:52:31;;;;;;;11.25;7.78;;;;;;;;;;763785;182;920449;-70
2021/09/19 12:54:57;;;;;;;11.57;8.23;;;;;;;;;;759331;181;918005;-69
2021/09/19 12:57:23;;;;;;;15.00;8.60;;;;;;;;;;772863;179;918947;-70
2021/09/19 12:59:48;;;;;;;11.30;8.77;;;;;;;;;;781231;177;920653;-72
2021/09/19 13:02:14;;;;;;;11.50;8.60;;;;;;;;;;765302;179;921757;-69
2021/09/19 13:04:41;;;;;;;11.75;8.45;;;;;;;;;;774882;179;918578;-72
2021/09/19 13:07:06;;;;;;;12.83;7.93;;;;;;;;;;769977;179;918965;-71
2021/09/19 13:09:32;;;;;;;12.77;7.80;;;;;;;;;;780290;176;1017241;-72
2021/09/19 13:11:58;;;;;;;13.33;7.30;;;;;;;;;;780739;176;916473;-70
2021/09/19 13:14:23;;;;;;;13.03;8.80;;;;;;;;;;766344;177;939407;-71
2021/09/19 13:16:49;;;;;;;13.70;9.10;;;;;;;;;;768174;179;918277;-71
2021/09/19 13:19:15;;;;;;;13.90;8.30;;;;;;;;;;787058;177;916963;-70
2021/09/19 13:21:42;;;;;;;14.77;9.90;;;;;;;;;;763298;179;921134;-70
2021/09/19 13:24:07;;;;;;;11.67;7.50;;;;;;;;;;776671;177;919026;-69
2021/09/19 13:26:33;;;;;;;17.90;9.00;;;;;;;;;;769771;179;918231;-71
2021/09/19 13:28:59;;;;;;;9.90;8.33;;;;;;;;;;772774;179;915262;-70
2021/09/19 13:31:24;;;;;;;12.63;8.87;;;;;;;;;;773011;181;904728;-72
2021/09/19 13:33:50;;;;;;;12.67;8.03;;;;;;;;;;767993;178;918726;-70
2021/09/19 13:36:16;;;;;;;11.90;8.30;;;;;;;;;;774697;179;918007;-72
2021/09/19 13:38:42;;;;;;;11.07;7.87;;;;;;;;;;770398;179;937205;-70
2021/09/19 13:41:08;;;;;;;10.57;7.10;;;;;;;;;;767193;179;914822;-70
2021/09/19 13:43:34;;;;;;;13.30;8.53;;;;;;;;;;775024;180;910599;-70
2021/09/19 13:45:59;;;;;;;11.40;8.53;;;;;;;;;;771874;179;913565;-72
2021/09/19 13:48:25;;;;;;;10.40;8.13;;;;;;;;;;773744;180;915768;-70
2021/09/19 13:50:51;;;;;;;11.70;8.10;;;;;;;;;;769258;179;918363;-70
2021/09/19 13:53:17;;;;;;;12.43;7.43;;;;;;;;;;770536;179;919756;-70
2021/09/19 13:55:45;;;;;;;10.33;7.30;;;;;;;;;;770172;175;2032138;-73
2021/09/19 13:58:09;;;;;;;9.23;6.80;;;;;;;;;;779498;175;919016;-71
2021/09/19 14:00:34;;;;;;;9.57;7.60;;;;;;;;;;784279;177;920896;-70
2021/09/19 14:03:00;;;;;;;9.60;6.90;;;;;;;;;;777058;178;923376;-70
2021/09/19 14:05:26;;;;;;;14.30;8.07;;;;;;;;;;778901;175;919249;-70
2021/09/19 14:07:52;;;;;;;10.27;7.40;;;;;;;;;;778364;178;918483;-71
2021/09/19 14:10:18;;;;;;;10.37;8.27;;;;;;;;;;778851;178;918852;-69
2021/09/19 14:12:44;;;;;;;11.10;7.90;;;;;;;;;;767250;179;918987;-71